This demonstration page uses our WeatherBlox Daily Observations layout. Learn more.

Left ArrowRight Arrow

39.01783, -85.05884

Hourly Observations for April 17, 2021

Temp ( °F °C ) Dew Point ( °F °C ) Humidity (%) Winds ( mph kmh ) Pressure ( in mb ) Visibility ( mi km ) Precip ( " mm )
12:52 am 00:52 Partly Cloudy 45 7.2 35 1.7 68 68 Calm 29.89 1012 10 16.0934 0 0
1:52 am 01:52 Partly Cloudy 47 8.3 35 1.7 63 63 N 5 7 29.88 1012 10 16.0934 0 0
2:52 am 02:52 Partly Cloudy 46 7.8 36 2.2 68 68 N 6 9 29.88 1012 10 16.0934 0 0
3:52 am 03:52 Cloudy 47 8.3 37 2.8 69 69 N 5 7 29.88 1012 10 16.0934 0 0
4:52 am 04:52 Cloudy 47 8.3 37 2.8 69 69 N 3 6 29.88 1012 10 16.0934 0 0
5:52 am 05:52 Cloudy 46 7.8 38 3.3 73 73 Calm 29.87 1012 10 16.0934 0 0
6:52 am 06:52 Cloudy 46 7.8 38 3.3 73 73 Calm 29.87 1012 10 16.0934 0 0
7:52 am 07:52 Cloudy 46 7.8 38 3.3 73 73 N 5 7 29.88 1012 10 16.0934 0 0
8:52 am 08:52 Cloudy 47 8.3 40 4.4 77 77 N 3 6 29.88 1012 10 16.0934 0 0
9:52 am 09:52 Cloudy 49 9.4 40 4.4 71 71 NNW 5 7 29.89 1012 10 16.0934 0 0
10:52 am 10:52 Cloudy with Light Rain 52 11.1 41 5 66 66 NW 5 7 29.9 1013 10 16.0934 0.001 0.001
11:52 am 11:52 Cloudy with Light Rain 54 12.2 42 5.6 64 64 WNW 5 7 29.9 1013 10 16.0934 0.001 0.001
12:52 pm 12:52 Cloudy with Light Rain 53 11.7 43 6.1 69 69 NW 12 19 29.91 1013 10 16.0934 0.001 0.001
1:52 pm 13:52 Cloudy with Light Rain 52 11.1 44 6.7 75 75 NW 9 15 29.9 1013 10 16.0934 0.001 0.001
2:52 pm 14:52 Cloudy 54 12.2 45 7.2 72 72 NNW 13 20 29.9 1013 10 16.0934 0.01 0.254
3:52 pm 15:52 Cloudy 53 11.7 42 5.6 66 66 WNW 8 13 29.89 1012 10 16.0934 0.001 0.001
4:52 pm 16:52 Cloudy with Light Rain 53 11.7 44 6.7 72 72 NW 8 13 29.89 1012 10 16.0934 0.001 0.001
5:52 pm 17:52 Cloudy 52 11.1 42 5.6 69 69 WNW 6 9 29.9 1013 10 16.0934 0.001 0.001
6:52 pm 18:52 Cloudy with Light Rain 52 11.1 43 6.1 72 72 WSW 3 6 29.9 1013 10 16.0934 0.001 0.001
7:52 pm 19:52 Mostly Cloudy 51 10.6 42 5.6 71 71 S 3 6 29.89 1012 10 16.0934 0.001 0.001
8:52 pm 20:52 Mostly Clear 49 9.4 41 5 74 74 SW 5 7 29.91 1013 10 16.0934 0 0
9:52 pm 21:52 Clear 45 7.2 39 3.9 80 80 SSW 3 6 29.92 1013 10 16.0934 0 0
10:52 pm 22:52 Clear 46 7.8 41 5 83 83 WSW 3 6 29.93 1013 10 16.0934 0 0
11:52 pm 23:52 Clear 44 6.7 40 4.4 85 85 WSW 6 9 29.93 1013 10 16.0934 0 0

Powered by AerisWeather